createdAt,value
2018-03-28T15:30:16.542Z,78.02
2018-03-28T15:32:44.119Z,78.02
2018-03-28T15:35:11.527Z,77.38
2018-03-28T15:37:39.840Z,76.89
2018-03-28T15:40:07.324Z,77.02
2018-03-28T15:42:35.168Z,75.72
2018-03-28T15:45:02.961Z,75.44
2018-03-28T15:47:30.358Z,74.94
2018-03-28T15:49:57.875Z,75.32
2018-03-28T15:52:25.315Z,74.61
2018-03-28T15:54:52.776Z,74.36
2018-03-28T15:57:20.216Z,73.50
2018-03-28T15:59:47.671Z,73.75
2018-03-28T16:02:15.141Z,73.66
2018-03-28T16:04:42.862Z,73.96
2018-03-28T16:07:10.355Z,74.13
2018-03-28T16:09:37.976Z,74.25
2018-03-28T16:12:06.104Z,74.20
2018-03-28T16:14:33.562Z,74.71
2018-03-28T16:17:01.051Z,75.34
2018-03-28T16:19:28.489Z,75.44
2018-03-28T16:21:55.945Z,76.10
2018-03-28T16:24:23.434Z,76.63
2018-03-28T16:26:51.042Z,75.90
2018-03-28T16:29:18.912Z,75.88
2018-03-28T16:31:46.425Z,75.65
2018-03-28T16:34:14.275Z,75.67
2018-03-28T16:36:41.738Z,75.92
2018-03-28T16:39:09.148Z,75.45
2018-03-28T16:41:36.651Z,75.62
2018-03-28T16:44:04.158Z,75.82
2018-03-28T16:46:31.610Z,75.02
2018-03-28T16:48:59.038Z,74.98
2018-03-28T16:51:26.515Z,75.01
2018-03-28T16:53:54.005Z,75.48
2018-03-28T16:56:21.432Z,74.59
2018-03-28T16:58:49.453Z,74.84
2018-03-28T17:01:16.889Z,74.80
2018-03-28T17:03:44.663Z,75.56
2018-03-28T17:06:12.263Z,75.87
2018-03-28T17:08:39.723Z,75.64
2018-03-28T17:11:07.161Z,76.03
2018-03-28T17:13:34.683Z,76.43
2018-03-28T17:16:02.126Z,76.43
2018-03-28T17:18:29.776Z,76.45
2018-03-28T17:20:57.279Z,76.23
2018-03-28T17:23:24.761Z,76.19
2018-03-28T17:25:52.225Z,76.09
2018-03-28T17:28:19.652Z,76.73
2018-03-28T17:30:47.157Z,76.82
2018-03-28T17:33:15.138Z,76.10
2018-03-28T17:35:42.769Z,76.55
2018-03-28T17:38:14.242Z,76.64
2018-03-28T17:40:41.780Z,76.24
2018-03-28T17:43:09.424Z,76.34
2018-03-28T17:45:37.044Z,76.63
2018-03-28T17:48:04.639Z,77.01
2018-03-28T17:50:32.145Z,76.72
2018-03-28T17:52:59.659Z,76.62
2018-03-28T17:55:27.024Z,77.09
2018-03-28T17:57:54.484Z,77.33
2018-03-28T18:00:21.898Z,76.80
2018-03-28T18:02:49.358Z,76.24
2018-03-28T18:05:16.930Z,76.38
2018-03-28T18:07:44.458Z,76.22
2018-03-28T18:10:11.977Z,76.03
2018-03-28T18:12:39.475Z,75.69
2018-03-28T18:15:06.928Z,76.15
2018-03-28T18:17:34.371Z,76.42
2018-03-28T18:20:01.862Z,76.90
2018-03-28T18:22:29.283Z,77.89
2018-03-28T18:24:56.787Z,78.02
2018-03-28T18:27:27.640Z,77.91
2018-03-28T18:29:56.919Z,78.21
2018-03-28T18:32:24.345Z,77.65
2018-03-28T18:34:51.825Z,78.02
2018-03-28T18:37:19.327Z,78.62
2018-03-28T18:39:47.211Z,77.68
2018-03-28T18:42:14.633Z,77.95
2018-03-28T18:44:42.208Z,78.83
2018-03-28T18:47:09.675Z,78.61
2018-03-28T18:49:37.173Z,78.62
2018-03-28T18:52:05.378Z,78.24
2018-03-28T18:54:32.799Z,78.91
2018-03-28T18:57:00.248Z,79.05
2018-03-28T18:59:27.732Z,78.61
2018-03-28T19:01:55.186Z,79.36
2018-03-28T19:04:22.654Z,78.95
2018-03-28T19:06:50.147Z,79.25
2018-03-28T19:09:17.602Z,78.93
2018-03-28T19:11:45.049Z,78.67
2018-03-28T19:14:12.781Z,78.38
2018-03-28T19:16:40.229Z,78.55
2018-03-28T19:19:07.664Z,78.53
2018-03-28T19:21:35.127Z,78.77
2018-03-28T19:24:02.584Z,78.82
2018-03-28T19:26:30.047Z,78.77
2018-03-28T19:28:57.564Z,78.63
2018-03-28T19:31:25.211Z,79.26
2018-03-28T19:33:52.910Z,78.69
2018-03-28T19:36:20.548Z,78.58
2018-03-28T19:38:48.128Z,78.46
2018-03-28T19:41:15.713Z,78.55
2018-03-28T19:43:43.282Z,78.17
2018-03-28T19:46:11.441Z,78.51
2018-03-28T19:48:38.924Z,78.19
2018-03-28T19:51:06.378Z,79.35
2018-03-28T19:53:33.806Z,79.40
2018-03-28T19:56:01.400Z,78.47
2018-03-28T19:58:29.241Z,79.47
2018-03-28T20:00:57.146Z,78.60
2018-03-28T20:03:24.645Z,78.49
2018-03-28T20:05:52.197Z,77.37
2018-03-28T20:08:19.681Z,77.16
2018-03-28T20:10:47.125Z,77.34
2018-03-28T20:13:15.013Z,76.92
2018-03-28T20:15:42.461Z,77.16
2018-03-28T20:18:09.910Z,76.26
2018-03-28T20:20:37.390Z,76.44
2018-03-28T20:23:05.474Z,76.82
2018-03-28T20:25:32.935Z,76.53
2018-03-28T20:28:01.027Z,76.01
2018-03-28T20:30:28.548Z,76.47
2018-03-28T20:32:56.120Z,77.55
2018-03-28T20:35:23.655Z,75.87
2018-03-28T20:37:51.272Z,75.88
2018-03-28T20:40:18.915Z,76.44
2018-03-28T20:42:46.459Z,75.96
2018-03-28T20:45:13.966Z,76.50
2018-03-28T20:47:41.394Z,76.71
2018-03-28T20:50:09.015Z,76.20
2018-03-28T20:52:36.552Z,75.74
2018-03-28T20:55:04.010Z,76.00
2018-03-28T20:57:31.450Z,76.01
2018-03-28T20:59:58.875Z,76.81
2018-03-28T21:02:26.327Z,77.20
2018-03-28T21:04:53.898Z,77.41
2018-03-28T21:07:22.386Z,78.25
2018-03-28T21:09:49.888Z,78.96
2018-03-28T21:12:17.368Z,78.92
2018-03-28T21:14:44.791Z,78.35
2018-03-28T21:17:12.260Z,78.75
2018-03-28T21:19:39.680Z,79.09
2018-03-28T21:22:07.122Z,78.55
2018-03-28T21:24:34.594Z,76.60
2018-03-28T21:27:02.117Z,75.72
2018-03-28T21:29:30.653Z,76.02
2018-03-28T21:31:58.122Z,74.28
2018-03-28T21:34:25.637Z,75.30
2018-03-28T21:36:53.124Z,73.86
2018-03-28T21:39:20.570Z,73.70
2018-03-28T21:41:47.995Z,74.26
2018-03-28T21:44:15.556Z,72.96
2018-03-28T21:46:43.094Z,73.12
2018-03-28T21:49:10.523Z,72.29
2018-03-28T21:51:38.044Z,72.91
2018-03-28T21:54:05.625Z,72.65
2018-03-28T21:56:33.074Z,72.66
2018-03-28T21:59:00.585Z,72.06
2018-03-28T22:01:28.048Z,72.12
2018-03-28T22:03:55.477Z,72.71
2018-03-28T22:06:22.935Z,72.54
2018-03-28T22:08:50.398Z,72.63
2018-03-28T22:11:17.968Z,72.90
2018-03-28T22:13:45.501Z,72.81
2018-03-28T22:16:12.932Z,74.46
2018-03-28T22:18:40.390Z,72.98
2018-03-28T22:21:08.007Z,71.08
2018-03-28T22:23:35.703Z,72.71
2018-03-28T22:26:03.273Z,67.39
2018-03-28T22:28:30.942Z,67.00
2018-03-28T22:30:58.468Z,67.86
2018-03-28T22:33:26.056Z,66.71
2018-03-28T22:35:53.509Z,66.25
2018-03-28T22:38:20.965Z,66.48
2018-03-28T22:40:49.245Z,66.10
2018-03-28T22:43:16.664Z,65.63
2018-03-28T22:45:44.106Z,66.22
2018-03-28T22:48:11.539Z,67.07
2018-03-28T22:50:38.980Z,67.04
2018-03-28T22:53:06.439Z,67.51
2018-03-28T22:55:34.503Z,65.36
2018-03-28T22:58:02.032Z,65.78
2018-03-28T23:00:29.613Z,65.76
2018-03-28T23:02:57.171Z,66.02
2018-03-28T23:05:24.728Z,65.14
2018-03-28T23:07:52.297Z,66.38
2018-03-28T23:10:19.865Z,66.44
2018-03-28T23:12:47.499Z,66.65
2018-03-28T23:15:15.072Z,67.06
2018-03-28T23:17:42.459Z,66.32
2018-03-28T23:20:09.994Z,64.94
2018-03-28T23:22:40.311Z,64.25
2018-03-28T23:25:07.730Z,64.57
2018-03-28T23:27:35.145Z,63.79
2018-03-28T23:30:02.597Z,64.62
2018-03-28T23:32:30.169Z,64.63
2018-03-28T23:34:57.684Z,64.77
2018-03-28T23:37:25.243Z,63.90
2018-03-28T23:39:52.839Z,64.57
2018-03-28T23:42:20.447Z,64.12
2018-03-28T23:44:48.142Z,64.66
2018-03-28T23:47:15.607Z,64.24
2018-03-28T23:49:43.060Z,64.29
2018-03-28T23:52:10.506Z,65.44
2018-03-28T23:54:37.926Z,65.39
2018-03-28T23:57:05.379Z,64.66
2018-03-28T23:59:32.793Z,64.48
